createdAt,value
2018-05-23T00:01:09.349Z,75.75
2018-05-23T00:03:37.012Z,75.45
2018-05-23T00:06:04.626Z,75.18
2018-05-23T00:08:32.277Z,74.94
2018-05-23T00:10:59.912Z,74.89
2018-05-23T00:13:27.513Z,75.10
2018-05-23T00:15:55.177Z,75.06
2018-05-23T00:18:22.772Z,75.02
2018-05-23T00:20:50.421Z,74.89
2018-05-23T00:23:18.033Z,74.96
2018-05-23T00:25:45.696Z,75.31
2018-05-23T00:28:13.337Z,75.83
2018-05-23T00:30:40.982Z,76.15
2018-05-23T00:33:08.585Z,76.50
2018-05-23T00:35:36.223Z,76.54
2018-05-23T00:38:03.929Z,77.15
2018-05-23T00:40:31.578Z,77.64
2018-05-23T00:42:59.181Z,77.67
2018-05-23T00:45:26.840Z,77.68
2018-05-23T00:47:54.446Z,77.87
2018-05-23T00:50:22.300Z,78.36
2018-05-23T00:52:50.005Z,78.32
2018-05-23T00:55:29.169Z,78.43
2018-05-23T00:57:56.768Z,78.62
2018-05-23T01:00:24.429Z,78.81
2018-05-23T01:02:52.056Z,78.67
2018-05-23T01:05:19.739Z,78.48
2018-05-23T01:07:47.372Z,78.03
2018-05-23T01:10:15.013Z,78.23
2018-05-23T01:12:42.653Z,78.26
2018-05-23T01:15:10.271Z,78.22
2018-05-23T01:17:37.909Z,78.17
2018-05-23T01:20:05.512Z,78.38
2018-05-23T01:22:33.154Z,78.95
2018-05-23T01:25:00.758Z,78.94
2018-05-23T01:27:28.436Z,78.90
2018-05-23T01:29:56.076Z,79.07
2018-05-23T01:32:23.765Z,79.52
2018-05-23T01:34:51.398Z,79.25
2018-05-23T01:37:19.128Z,79.25
2018-05-23T01:39:46.785Z,79.12
2018-05-23T01:42:14.451Z,78.99
2018-05-23T01:44:42.122Z,79.18
2018-05-23T01:47:09.719Z,79.05
2018-05-23T01:49:37.369Z,79.06
2018-05-23T01:52:04.986Z,78.89
2018-05-23T01:54:32.745Z,78.79
2018-05-23T01:57:00.348Z,78.59
2018-05-23T01:59:27.990Z,79.07
2018-05-23T02:01:55.639Z,79.37
2018-05-23T02:04:23.265Z,79.12
2018-05-23T02:06:50.873Z,78.64
2018-05-23T02:09:18.506Z,78.37
2018-05-23T02:11:46.116Z,79.11
2018-05-23T02:14:13.748Z,79.54
2018-05-23T02:16:41.378Z,79.69
2018-05-23T02:19:09.008Z,80.17
2018-05-23T02:21:36.697Z,80.33
2018-05-23T02:24:04.328Z,80.16
2018-05-23T02:26:31.924Z,79.83
2018-05-23T02:28:59.561Z,79.63
2018-05-23T02:31:27.166Z,79.64
2018-05-23T02:33:54.846Z,80.22
2018-05-23T02:36:22.459Z,80.67
2018-05-23T02:38:50.074Z,81.25
2018-05-23T02:41:17.808Z,81.59
2018-05-23T02:43:45.450Z,81.65
2018-05-23T02:46:18.522Z,81.70
2018-05-23T02:48:46.139Z,81.41
2018-05-23T02:51:13.930Z,81.36
2018-05-23T02:53:41.509Z,81.26
2018-05-23T02:56:09.163Z,81.49
2018-05-23T02:58:36.770Z,81.87
2018-05-23T03:01:04.397Z,82.07
2018-05-23T03:03:32.029Z,82.37
2018-05-23T03:05:59.687Z,82.49
2018-05-23T03:08:27.297Z,82.53
2018-05-23T03:10:54.941Z,82.28
2018-05-23T03:13:22.609Z,81.96
2018-05-23T03:15:50.269Z,81.80
2018-05-23T03:18:17.869Z,81.81
2018-05-23T03:20:45.597Z,81.71
2018-05-23T03:23:13.207Z,81.61
2018-05-23T03:25:40.852Z,81.32
2018-05-23T03:28:08.489Z,81.59
2018-05-23T03:30:36.145Z,81.50
2018-05-23T03:33:03.764Z,81.90
2018-05-23T03:35:31.373Z,82.04
2018-05-23T03:37:59.005Z,81.98
2018-05-23T03:40:26.629Z,82.50
2018-05-23T03:42:54.296Z,82.38
2018-05-23T03:45:21.901Z,82.02
2018-05-23T03:47:49.542Z,81.92
2018-05-23T03:50:17.140Z,81.74
2018-05-23T03:52:44.822Z,81.50
2018-05-23T03:55:12.465Z,81.26
2018-05-23T03:57:40.212Z,80.93
2018-05-23T04:00:19.355Z,80.67
2018-05-23T04:02:58.680Z,80.44
2018-05-23T04:05:37.962Z,80.27
2018-05-23T04:08:07.378Z,80.11
2018-05-23T04:10:34.968Z,79.83
2018-05-23T04:13:02.620Z,79.85
2018-05-23T04:15:30.277Z,79.78
2018-05-23T04:17:57.876Z,79.84
2018-05-23T04:20:25.469Z,79.64
2018-05-23T04:22:53.110Z,79.45
2018-05-23T04:25:20.729Z,79.27
2018-05-23T04:27:48.389Z,79.72
2018-05-23T04:30:16.081Z,80.32
2018-05-23T04:32:43.716Z,80.48
2018-05-23T04:35:11.336Z,80.86
2018-05-23T04:37:38.984Z,80.94
2018-05-23T04:40:06.612Z,80.84
2018-05-23T04:42:34.363Z,80.63
2018-05-23T04:45:01.970Z,80.71
2018-05-23T04:47:29.620Z,80.58
2018-05-23T04:49:57.283Z,80.40
2018-05-23T04:52:24.908Z,80.14
2018-05-23T04:54:52.541Z,79.71
2018-05-23T04:57:20.146Z,79.54
2018-05-23T04:59:47.782Z,79.62
2018-05-23T05:02:15.397Z,80.22
2018-05-23T05:04:43.063Z,80.11
2018-05-23T05:07:10.677Z,80.29
2018-05-23T05:09:38.351Z,80.66
2018-05-23T05:12:05.969Z,81.93
2018-05-23T05:14:33.598Z,82.80
2018-05-23T05:17:01.218Z,82.39
2018-05-23T05:19:29.334Z,82.31
2018-05-23T05:21:56.965Z,82.51
2018-05-23T05:24:24.636Z,82.61
2018-05-23T05:26:52.274Z,82.08
2018-05-23T05:29:19.928Z,82.33
2018-05-23T05:31:47.541Z,82.48
2018-05-23T05:34:15.149Z,82.25
2018-05-23T05:36:42.783Z,82.28
2018-05-23T05:39:10.518Z,82.40
2018-05-23T05:41:38.075Z,82.33
2018-05-23T05:44:05.689Z,81.97
2018-05-23T05:46:33.324Z,81.87
2018-05-23T05:49:00.948Z,81.49
2018-05-23T05:51:28.585Z,81.27
2018-05-23T05:53:56.192Z,81.07
2018-05-23T05:56:23.939Z,80.91
2018-05-23T05:58:51.541Z,80.68
2018-05-23T06:01:19.359Z,80.47
2018-05-23T06:03:47.042Z,80.61
2018-05-23T06:06:14.799Z,80.59
2018-05-23T06:08:42.437Z,80.09
2018-05-23T06:11:10.079Z,79.65
2018-05-23T06:13:37.783Z,79.38
2018-05-23T06:16:05.400Z,79.02
2018-05-23T06:18:33.790Z,78.49
2018-05-23T06:21:01.415Z,78.64
2018-05-23T06:23:29.080Z,78.88
2018-05-23T06:25:56.685Z,78.98
2018-05-23T06:28:24.329Z,78.63
2018-05-23T06:30:51.944Z,78.54
2018-05-23T06:33:19.596Z,78.43
2018-05-23T06:35:47.240Z,77.86
2018-05-23T06:38:14.889Z,78.63
2018-05-23T06:40:42.560Z,78.62
2018-05-23T06:43:10.202Z,78.59
2018-05-23T06:45:37.826Z,78.67
2018-05-23T06:48:05.595Z,77.68
2018-05-23T06:50:33.256Z,77.75
2018-05-23T06:53:00.860Z,77.57
2018-05-23T06:55:28.555Z,77.62
2018-05-23T06:57:56.240Z,76.10
2018-05-23T07:00:24.083Z,76.20
2018-05-23T07:02:51.706Z,76.28
2018-05-23T07:05:19.426Z,76.32
2018-05-23T07:07:47.076Z,76.44
2018-05-23T07:10:14.717Z,75.90
2018-05-23T07:12:42.394Z,75.45
2018-05-23T07:15:10.024Z,75.98
2018-05-23T07:17:37.616Z,76.99
2018-05-23T07:20:05.267Z,76.42
2018-05-23T07:22:32.883Z,74.70
2018-05-23T07:25:00.589Z,74.78
2018-05-23T07:27:28.192Z,74.27
2018-05-23T07:29:56.068Z,73.58
2018-05-23T07:32:23.672Z,73.44
2018-05-23T07:34:51.377Z,72.67
2018-05-23T07:37:18.965Z,72.60
2018-05-23T07:39:46.624Z,71.89
2018-05-23T07:42:14.226Z,71.61
2018-05-23T07:44:41.889Z,70.39
2018-05-23T07:47:09.734Z,69.99
2018-05-23T07:49:37.332Z,69.33
2018-05-23T07:52:04.972Z,69.11
2018-05-23T07:54:32.658Z,68.19
2018-05-23T07:57:00.304Z,68.92
2018-05-23T07:59:27.915Z,68.84
2018-05-23T08:01:55.566Z,68.58
2018-05-23T08:04:23.196Z,68.16
2018-05-23T08:06:50.857Z,67.78
2018-05-23T08:09:18.471Z,68.61
2018-05-23T08:11:46.135Z,67.09
2018-05-23T08:14:13.760Z,67.47
2018-05-23T08:16:41.437Z,67.00
2018-05-23T08:19:09.084Z,66.81
2018-05-23T08:21:36.736Z,66.57
2018-05-23T08:24:04.389Z,65.97
2018-05-23T08:26:32.006Z,65.79
2018-05-23T08:28:59.657Z,65.04
2018-05-23T08:31:27.281Z,64.93
2018-05-23T08:33:54.933Z,64.76
2018-05-23T08:36:22.590Z,63.57
2018-05-23T08:38:50.195Z,63.11
2018-05-23T08:41:17.800Z,63.20
2018-05-23T08:43:45.437Z,63.02
2018-05-23T08:46:13.060Z,64.18
2018-05-23T08:48:40.713Z,63.67
2018-05-23T08:51:08.304Z,62.74
2018-05-23T08:53:35.910Z,61.98
2018-05-23T08:56:03.556Z,60.57
2018-05-23T08:58:31.193Z,59.52
2018-05-23T09:00:58.873Z,59.75
2018-05-23T09:03:26.471Z,59.07
2018-05-23T09:05:54.119Z,56.64
2018-05-23T09:08:21.760Z,57.45
2018-05-23T09:10:49.404Z,58.00
2018-05-23T09:13:17.024Z,56.16
2018-05-23T09:15:44.656Z,56.83
2018-05-23T09:18:12.255Z,57.87
2018-05-23T09:20:39.880Z,57.83
2018-05-23T09:23:07.495Z,57.79
2018-05-23T09:25:35.153Z,57.32
2018-05-23T09:28:02.750Z,56.13
2018-05-23T09:30:30.362Z,54.82
2018-05-23T09:32:58.027Z,54.82
2018-05-23T09:35:25.624Z,54.75
2018-05-23T09:37:53.280Z,53.68
2018-05-23T09:40:20.902Z,53.81
2018-05-23T09:42:48.520Z,52.65
2018-05-23T09:45:16.214Z,52.54
2018-05-23T09:47:43.777Z,53.59
2018-05-23T09:50:11.404Z,53.26
2018-05-23T09:52:39.101Z,53.67
2018-05-23T09:55:06.751Z,52.37
2018-05-23T09:57:34.384Z,51.86
2018-05-23T10:00:02.091Z,51.79
2018-05-23T10:02:29.760Z,50.66
2018-05-23T10:04:57.373Z,51.07
2018-05-23T10:07:25.089Z,50.72
2018-05-23T10:09:52.703Z,51.08
2018-05-23T10:12:20.404Z,49.18
2018-05-23T10:14:48.047Z,48.02
2018-05-23T10:17:15.647Z,47.75
2018-05-23T10:19:43.263Z,46.90
2018-05-23T10:22:10.893Z,47.82
2018-05-23T10:24:38.530Z,46.62
2018-05-23T10:27:06.112Z,47.06
2018-05-23T10:29:33.747Z,47.58
2018-05-23T10:32:01.348Z,48.20
2018-05-23T10:34:28.987Z,47.95
2018-05-23T10:36:56.596Z,48.83
2018-05-23T10:39:24.329Z,50.78
2018-05-23T10:41:51.930Z,50.97
2018-05-23T10:44:19.588Z,51.51
2018-05-23T10:46:47.225Z,51.88
2018-05-23T10:49:14.839Z,52.14
2018-05-23T10:51:42.480Z,52.21
2018-05-23T10:54:10.108Z,52.66
2018-05-23T10:56:37.747Z,52.97
2018-05-23T10:59:05.329Z,53.43
2018-05-23T11:01:32.976Z,54.12
2018-05-23T11:04:00.564Z,54.77
2018-05-23T11:06:28.246Z,54.84
2018-05-23T11:08:55.906Z,54.80
2018-05-23T11:11:23.489Z,55.63
2018-05-23T11:13:51.133Z,56.20
2018-05-23T11:16:18.743Z,56.39
2018-05-23T11:18:46.444Z,56.77
2018-05-23T11:21:14.073Z,56.25
2018-05-23T11:23:41.672Z,56.26
2018-05-23T11:26:09.994Z,56.01
2018-05-23T11:28:37.647Z,55.32
2018-05-23T11:31:05.296Z,55.40
2018-05-23T11:33:32.951Z,55.76
2018-05-23T11:36:00.588Z,55.93
2018-05-23T11:38:28.180Z,56.96
2018-05-23T11:40:55.839Z,57.65
2018-05-23T11:43:23.462Z,57.49
2018-05-23T11:45:51.189Z,57.83
2018-05-23T11:50:45.733Z,58.55
2018-05-23T11:53:13.425Z,60.34
2018-05-23T11:55:41.056Z,62.34
2018-05-23T11:58:08.712Z,63.83
2018-05-23T12:00:36.337Z,64.21
2018-05-23T12:03:03.964Z,64.25
2018-05-23T12:05:31.548Z,64.34
2018-05-23T12:07:59.189Z,64.84
2018-05-23T12:10:26.800Z,66.33
2018-05-23T12:12:54.437Z,64.30
2018-05-23T12:15:22.049Z,63.76
2018-05-23T12:17:49.700Z,65.38
2018-05-23T12:20:17.349Z,64.71
2018-05-23T12:22:44.936Z,66.57
2018-05-23T12:25:12.720Z,66.11
2018-05-23T12:27:40.310Z,67.58
2018-05-23T12:30:07.973Z,66.87
2018-05-23T12:32:35.570Z,67.24
2018-05-23T12:35:03.241Z,66.77
2018-05-23T12:37:30.869Z,67.37
2018-05-23T12:39:58.769Z,67.84
2018-05-23T12:42:26.520Z,66.59
2018-05-23T12:44:54.158Z,69.58
2018-05-23T12:47:21.752Z,69.04
2018-05-23T12:49:49.561Z,69.80
2018-05-23T12:52:17.193Z,68.87
2018-05-23T12:54:44.792Z,69.48
2018-05-23T12:57:12.431Z,69.15
2018-05-23T12:59:40.284Z,68.06
2018-05-23T13:02:07.912Z,67.48
2018-05-23T13:04:35.544Z,66.57
2018-05-23T13:07:03.174Z,66.36
2018-05-23T13:09:30.782Z,64.90
2018-05-23T13:11:58.531Z,63.47
2018-05-23T13:14:26.161Z,62.63
2018-05-23T13:16:53.796Z,62.58
2018-05-23T13:19:21.428Z,63.28
2018-05-23T13:21:49.076Z,63.06
2018-05-23T13:24:16.682Z,62.94
2018-05-23T13:26:44.315Z,62.83
2018-05-23T13:29:11.908Z,62.21
2018-05-23T13:31:39.541Z,62.73
2018-05-23T13:34:07.137Z,62.75
2018-05-23T13:36:34.737Z,63.18
2018-05-23T13:39:02.467Z,63.57
2018-05-23T13:41:30.049Z,62.84
2018-05-23T13:43:57.709Z,62.55
2018-05-23T13:46:25.321Z,61.55
2018-05-23T13:48:52.964Z,60.55
2018-05-23T13:51:20.637Z,59.55
2018-05-23T13:53:48.285Z,60.22
2018-05-23T13:56:15.889Z,61.45
2018-05-23T13:58:43.533Z,61.04
2018-05-23T14:01:11.142Z,60.17
2018-05-23T14:03:38.762Z,58.73
2018-05-23T14:06:06.365Z,58.49
2018-05-23T14:08:34.023Z,59.13
2018-05-23T14:11:01.616Z,58.78
2018-05-23T14:13:29.247Z,57.15
2018-05-23T14:15:56.859Z,57.18
2018-05-23T14:18:24.569Z,55.07
2018-05-23T14:20:52.164Z,54.41
2018-05-23T14:23:19.766Z,55.34
2018-05-23T14:25:47.409Z,55.17
2018-05-23T14:28:15.004Z,55.89
2018-05-23T14:30:42.647Z,56.21
2018-05-23T14:33:10.257Z,56.65
2018-05-23T14:35:37.898Z,56.85
2018-05-23T14:38:05.484Z,56.30
2018-05-23T14:40:33.121Z,55.89
2018-05-23T14:43:00.741Z,55.53
2018-05-23T14:45:28.465Z,54.05
2018-05-23T14:47:56.068Z,53.17
2018-05-23T14:50:23.687Z,52.41
2018-05-23T14:52:51.306Z,51.05
2018-05-23T14:55:18.950Z,50.35
2018-05-23T14:57:46.588Z,49.65
2018-05-23T15:00:14.298Z,49.15
2018-05-23T15:02:41.893Z,48.69
2018-05-23T15:05:09.717Z,47.74
2018-05-23T15:07:37.317Z,47.70
2018-05-23T15:10:05.046Z,47.41
2018-05-23T15:12:32.681Z,49.06
2018-05-23T15:15:00.284Z,49.81
2018-05-23T15:17:27.926Z,49.97
2018-05-23T15:19:55.678Z,50.15
2018-05-23T15:22:23.182Z,49.86
2018-05-23T15:24:50.774Z,48.60
2018-05-23T15:27:18.510Z,49.04
2018-05-23T15:29:45.987Z,48.00
2018-05-23T15:32:13.621Z,46.36
2018-05-23T15:34:41.259Z,46.50
2018-05-23T15:37:08.938Z,45.53
2018-05-23T15:39:36.609Z,44.06
2018-05-23T15:42:04.198Z,43.91
2018-05-23T15:44:31.877Z,44.48
2018-05-23T15:46:59.478Z,46.20
2018-05-23T15:49:27.214Z,46.70
2018-05-23T15:51:54.836Z,46.12
2018-05-23T15:54:22.496Z,45.95
2018-05-23T15:56:50.176Z,46.08
2018-05-23T15:59:17.745Z,46.34
2018-05-23T16:01:45.347Z,46.25
2018-05-23T16:04:12.980Z,47.00
2018-05-23T16:06:40.577Z,48.24
2018-05-23T16:09:08.284Z,48.46
2018-05-23T16:11:35.902Z,49.07
2018-05-23T16:14:03.522Z,49.39
2018-05-23T16:16:31.115Z,49.85
2018-05-23T16:18:58.741Z,49.75
2018-05-23T16:21:26.356Z,49.45
2018-05-23T16:23:53.988Z,49.88
2018-05-23T16:26:21.593Z,50.23
2018-05-23T16:28:49.256Z,50.00
2018-05-23T16:31:16.861Z,49.77
2018-05-23T16:33:44.469Z,49.93
2018-05-23T16:36:12.110Z,49.69
2018-05-23T16:38:39.747Z,49.47
2018-05-23T16:41:07.381Z,49.66
2018-05-23T16:43:35.004Z,50.28
2018-05-23T16:46:02.653Z,50.46
2018-05-23T16:48:30.293Z,50.41
2018-05-23T16:50:57.959Z,50.93
2018-05-23T16:53:25.564Z,51.01
2018-05-23T16:55:53.219Z,51.26
2018-05-23T16:58:20.827Z,51.13
2018-05-23T17:00:48.481Z,50.96
2018-05-23T17:03:16.093Z,51.08
2018-05-23T17:05:43.757Z,50.76
2018-05-23T17:08:11.606Z,50.69
2018-05-23T17:10:39.328Z,50.52
2018-05-23T17:13:06.925Z,50.73
2018-05-23T17:15:34.573Z,50.77
2018-05-23T17:18:02.195Z,50.61
2018-05-23T17:20:29.811Z,50.84
2018-05-23T17:22:57.458Z,50.65
2018-05-23T17:25:25.088Z,50.99
2018-05-23T17:27:52.721Z,50.95
2018-05-23T17:30:20.351Z,50.92
2018-05-23T17:32:48.028Z,50.58
2018-05-23T17:35:15.734Z,51.05
2018-05-23T17:37:43.371Z,50.40
2018-05-23T17:40:11.089Z,49.97
2018-05-23T17:42:38.706Z,49.81
2018-05-23T17:45:06.320Z,50.01
2018-05-23T17:47:34.006Z,50.39
2018-05-23T17:50:01.638Z,50.15
2018-05-23T17:52:29.342Z,49.93
2018-05-23T17:54:56.950Z,50.22
2018-05-23T17:57:24.598Z,49.98
2018-05-23T17:59:52.205Z,49.44
2018-05-23T18:02:19.862Z,49.63
2018-05-23T18:04:47.442Z,49.30
2018-05-23T18:07:15.077Z,48.97
2018-05-23T18:09:42.746Z,49.21
2018-05-23T18:12:10.416Z,48.75
2018-05-23T18:14:38.056Z,48.15
2018-05-23T18:17:05.680Z,48.30
2018-05-23T18:19:33.336Z,48.52
2018-05-23T18:22:00.952Z,48.38
2018-05-23T18:24:28.760Z,48.49
2018-05-23T18:26:56.345Z,47.75
2018-05-23T18:29:24.116Z,47.80
2018-05-23T18:31:51.714Z,48.08
2018-05-23T18:34:19.363Z,48.53
2018-05-23T18:36:46.998Z,48.47
2018-05-23T18:39:14.715Z,48.39
2018-05-23T18:41:42.325Z,48.28
2018-05-23T18:44:10.061Z,48.80
2018-05-23T18:46:37.654Z,48.55
2018-05-23T18:49:05.321Z,48.07
2018-05-23T18:51:32.941Z,48.88
2018-05-23T18:54:00.606Z,48.88
2018-05-23T18:56:28.361Z,48.81
2018-05-23T18:58:55.992Z,48.86
2018-05-23T19:01:23.637Z,49.45
2018-05-23T19:03:51.354Z,49.04
2018-05-23T19:06:19.074Z,48.40
2018-05-23T19:08:46.726Z,48.22
2018-05-23T19:11:14.358Z,48.72
2018-05-23T19:13:41.988Z,49.12
2018-05-23T19:16:09.638Z,48.35
2018-05-23T19:18:37.239Z,48.69
2018-05-23T19:21:04.889Z,48.76
2018-05-23T19:23:32.625Z,49.13
2018-05-23T19:26:00.270Z,49.15
2018-05-23T19:28:27.897Z,48.96
2018-05-23T19:30:55.536Z,49.30
2018-05-23T19:33:23.184Z,49.69
2018-05-23T19:35:50.822Z,49.21
2018-05-23T19:38:18.581Z,49.73
2018-05-23T19:40:46.288Z,49.74
2018-05-23T19:43:13.918Z,49.78
2018-05-23T19:45:41.565Z,49.68
2018-05-23T19:48:09.176Z,49.50
2018-05-23T19:50:36.902Z,49.79
2018-05-23T19:53:04.561Z,49.73
2018-05-23T19:55:32.212Z,49.60
2018-05-23T19:57:59.835Z,49.80
2018-05-23T20:00:27.517Z,50.30
2018-05-23T20:02:55.163Z,50.41
2018-05-23T20:05:22.811Z,50.32
2018-05-23T20:07:50.420Z,50.32
2018-05-23T20:10:18.137Z,50.44
2018-05-23T20:12:45.750Z,50.57
2018-05-23T20:15:13.361Z,50.34
2018-05-23T20:17:41.009Z,50.52
2018-05-23T20:20:08.610Z,50.36
2018-05-23T20:22:36.302Z,50.46
2018-05-23T20:25:03.913Z,50.62
2018-05-23T20:27:31.750Z,50.77
2018-05-23T20:29:59.365Z,50.89
2018-05-23T20:32:26.998Z,51.08
2018-05-23T20:34:54.620Z,50.58
2018-05-23T20:37:22.332Z,50.99
2018-05-23T20:39:49.934Z,50.52
2018-05-23T20:42:17.577Z,50.72
2018-05-23T20:44:45.192Z,50.98
2018-05-23T20:47:12.884Z,50.84
2018-05-23T20:49:40.589Z,50.83
2018-05-23T20:52:08.257Z,51.25
2018-05-23T20:54:35.866Z,51.25
2018-05-23T20:57:03.492Z,51.11
2018-05-23T20:59:31.175Z,51.20
2018-05-23T21:01:58.819Z,51.54
2018-05-23T21:04:26.444Z,51.21
2018-05-23T21:06:54.191Z,51.10
2018-05-23T21:09:21.799Z,51.07
2018-05-23T21:11:49.485Z,50.91
2018-05-23T21:14:17.141Z,50.86
2018-05-23T21:16:44.751Z,50.87
2018-05-23T21:19:12.420Z,50.55
2018-05-23T21:21:40.041Z,50.80
2018-05-23T21:24:07.691Z,50.50
2018-05-23T21:26:35.396Z,50.46
2018-05-23T21:29:03.041Z,50.40
2018-05-23T21:31:30.641Z,50.41
2018-05-23T21:33:58.280Z,50.25
2018-05-23T21:36:25.889Z,50.52
2018-05-23T21:38:53.518Z,50.57
2018-05-23T21:41:21.121Z,50.57
2018-05-23T21:43:48.783Z,50.61
2018-05-23T21:46:16.388Z,50.06
2018-05-23T21:48:44.136Z,50.06
2018-05-23T21:51:11.728Z,50.42
2018-05-23T21:53:39.325Z,50.08
2018-05-23T21:56:06.948Z,50.47
2018-05-23T21:58:34.555Z,49.95
2018-05-23T22:01:02.205Z,49.84
2018-05-23T22:03:29.823Z,50.48
2018-05-23T22:05:57.485Z,50.83
2018-05-23T22:08:25.168Z,50.78
2018-05-23T22:10:52.814Z,50.94
2018-05-23T22:13:20.427Z,51.10
2018-05-23T22:15:48.065Z,50.93
2018-05-23T22:18:15.749Z,51.19
2018-05-23T22:20:43.337Z,51.08
2018-05-23T22:23:11.028Z,51.22
2018-05-23T22:25:38.784Z,51.30
2018-05-23T22:28:06.400Z,51.65
2018-05-23T22:30:34.083Z,51.48
2018-05-23T22:33:01.656Z,51.87
2018-05-23T22:35:29.334Z,52.08
2018-05-23T22:37:56.953Z,52.55
2018-05-23T22:40:24.622Z,52.77
2018-05-23T22:42:52.266Z,52.99
2018-05-23T22:45:19.853Z,53.19
2018-05-23T22:47:47.497Z,53.22
2018-05-23T22:50:15.104Z,53.60
2018-05-23T22:52:42.731Z,53.92
2018-05-23T22:55:10.324Z,54.15
2018-05-23T22:57:37.988Z,54.18
2018-05-23T23:00:05.657Z,54.54
2018-05-23T23:02:33.376Z,54.81
2018-05-23T23:05:01.092Z,54.95
2018-05-23T23:07:28.750Z,55.20
2018-05-23T23:09:56.361Z,55.46
2018-05-23T23:12:23.999Z,55.86
2018-05-23T23:14:51.605Z,55.97
2018-05-23T23:17:19.223Z,56.52
2018-05-23T23:19:46.863Z,56.61
2018-05-23T23:22:26.089Z,56.57
2018-05-23T23:24:53.686Z,57.17
2018-05-23T23:27:21.337Z,56.95
2018-05-23T23:29:48.933Z,57.37
2018-05-23T23:32:16.599Z,57.12
2018-05-23T23:34:44.203Z,57.90
2018-05-23T23:37:11.813Z,58.04
2018-05-23T23:39:39.442Z,58.03
2018-05-23T23:42:07.095Z,58.11
2018-05-23T23:44:34.846Z,58.40
2018-05-23T23:47:02.385Z,58.36
2018-05-23T23:49:30.018Z,58.56
2018-05-23T23:51:57.613Z,58.68
2018-05-23T23:54:25.327Z,58.86
2018-05-23T23:56:52.917Z,58.76
2018-05-23T23:59:20.568Z,58.78
